Time;durP1;ratioP1;P1;durP2;ratioP2;P2;SDS_P1;SDS_P2;PMS_P1;PMS_P2;Temp;Humidity;BMP_temperature;BMP_pressure;BME280_temperature;BME280_humidity;BME280_pressure;Samples;Min_cycle;Max_cycle;Signal;HPM_P1;HPM_P2
2023/05/31 00:00:07;;;;;;;6.30;2.63;;;13.30;66.10;;;;;;5091639;28;20043;-66
2023/05/31 00:02:33;;;;;;;4.88;2.90;;;13.30;66.10;;;;;;5115689;27;20055;-66
2023/05/31 00:04:59;;;;;;;5.15;2.35;;;13.30;66.00;;;;;;5090873;28;20044;-66
2023/05/31 00:07:25;;;;;;;5.63;2.67;;;13.20;65.90;;;;;;5099003;27;20064;-66
2023/05/31 00:09:51;;;;;;;4.13;2.70;;;13.30;65.90;;;;;;5090347;28;20036;-66
2023/05/31 00:12:16;;;;;;;5.13;2.83;;;13.20;65.80;;;;;;5072998;28;20509;-66
2023/05/31 00:14:42;;;;;;;4.78;2.83;;;13.20;65.70;;;;;;5090811;28;20036;-66
2023/05/31 00:17:07;;;;;;;4.43;2.78;;;13.20;65.70;;;;;;5121867;27;20044;-66
2023/05/31 00:19:33;;;;;;;4.13;2.83;;;13.20;65.70;;;;;;5072708;28;20388;-66
2023/05/31 00:21:59;;;;;;;7.53;3.17;;;13.20;65.70;;;;;;5089705;28;20085;-66
2023/05/31 00:24:24;;;;;;;4.72;2.60;;;13.10;65.60;;;;;;5089367;28;20527;-66
2023/05/31 00:26:50;;;;;;;4.97;2.75;;;13.20;65.70;;;;;;5089328;28;20040;-66
2023/05/31 00:29:16;;;;;;;4.57;2.78;;;13.10;65.70;;;;;;5108684;27;20072;-66
2023/05/31 00:31:42;;;;;;;3.95;2.70;;;13.10;65.70;;;;;;5090779;28;20115;-66
2023/05/31 00:34:10;;;;;;;5.70;3.25;;;13.00;65.60;;;;;;5072630;28;20142;-66
2023/05/31 00:36:35;;;;;;;5.22;2.65;;;13.00;65.60;;;;;;5090782;28;20047;-66
2023/05/31 00:39:02;;;;;;;3.60;2.47;;;13.10;65.70;;;;;;5116493;27;20044;-67
2023/05/31 00:41:27;;;;;;;4.28;2.40;;;13.00;65.60;;;;;;5104396;28;20040;-66
2023/05/31 00:43:53;;;;;;;4.30;2.53;;;13.00;65.60;;;;;;5113211;28;20101;-66
2023/05/31 00:46:31;;;;;;;4.20;2.60;;;13.00;65.60;;;;;;5088988;28;20743;-66
2023/05/31 00:48:58;;;;;;;4.30;2.95;;;13.00;65.60;;;;;;5089251;28;20056;-66
2023/05/31 00:51:28;;;;;;;5.25;2.92;;;12.90;65.70;;;;;;5087012;28;20043;-66
2023/05/31 00:53:55;;;;;;;6.60;3.28;;;12.90;65.80;;;;;;5118737;28;20104;-66
2023/05/31 00:56:21;;;;;;;4.68;3.00;;;12.90;65.90;;;;;;5118230;28;20039;-66
2023/05/31 00:58:48;;;;;;;4.60;2.90;;;12.90;66.00;;;;;;5115505;28;20197;-66
2023/05/31 01:01:15;;;;;;;5.18;3.08;;;12.90;66.00;;;;;;5089403;28;20044;-66
2023/05/31 01:03:41;;;;;;;3.53;2.53;;;12.80;66.00;;;;;;5115866;28;20044;-66
2023/05/31 01:06:08;;;;;;;4.57;2.60;;;12.80;66.10;;;;;;5089337;28;20044;-66
2023/05/31 01:08:34;;;;;;;4.72;3.13;;;12.80;66.00;;;;;;5118707;28;20040;-66
2023/05/31 01:11:21;;;;;;;4.25;2.60;;;12.80;66.10;;;;;;5117303;28;20086;-66
2023/05/31 01:13:57;;;;;;;4.88;2.80;;;12.70;66.00;;;;;;5089066;28;20086;-66
2023/05/31 01:16:31;;;;;;;4.55;2.55;;;12.70;66.10;;;;;;5119542;28;20047;-66
2023/05/31 01:19:02;;;;;;;4.47;2.63;;;12.70;66.10;;;;;;5072364;28;20131;-66
2023/05/31 01:21:51;;;;;;;4.90;2.88;;;12.70;66.50;;;;;;5122640;28;20058;-66
2023/05/31 01:24:39;;;;;;;4.55;2.67;;;12.70;66.20;;;;;;5090083;28;20430;-66
2023/05/31 01:27:06;;;;;;;4.40;2.70;;;12.60;66.20;;;;;;5090581;28;20036;-66
2023/05/31 01:29:35;;;;;;;5.15;3.08;;;12.60;66.30;;;;;;5116950;28;20055;-66
2023/05/31 01:32:02;;;;;;;4.90;3.60;;;12.60;66.30;;;;;;5088052;28;20482;-66
2023/05/31 01:34:28;;;;;;;4.10;3.13;;;12.60;66.40;;;;;;5120047;28;20039;-66
2023/05/31 01:36:54;;;;;;;4.85;3.00;;;12.60;66.60;;;;;;5123900;28;20097;-66
2023/05/31 01:39:20;;;;;;;4.70;2.80;;;12.60;66.60;;;;;;5115778;28;20123;-66
2023/05/31 01:41:48;;;;;;;4.80;3.17;;;12.50;67.10;;;;;;5090339;28;20039;-66
2023/05/31 01:44:16;;;;;;;5.65;3.35;;;12.50;66.70;;;;;;5089896;28;20040;-66
2023/05/31 01:46:43;;;;;;;5.40;3.80;;;12.50;66.70;;;;;;5123313;28;20078;-66
2023/05/31 01:49:10;;;;;;;5.75;3.30;;;12.50;66.80;;;;;;5120170;28;20054;-66
2023/05/31 01:51:37;;;;;;;6.82;3.20;;;12.40;66.70;;;;;;5123123;28;20040;-66
2023/05/31 01:54:04;;;;;;;6.57;3.45;;;12.40;66.70;;;;;;5120416;28;20118;-66
2023/05/31 01:56:31;;;;;;;3.83;2.72;;;12.40;66.70;;;;;;5072981;28;20047;-66
2023/05/31 01:58:58;;;;;;;4.53;2.97;;;12.40;66.70;;;;;;5092485;28;20036;-66
2023/05/31 02:01:24;;;;;;;6.07;3.45;;;12.40;66.70;;;;;;5093593;28;20546;-66
2023/05/31 02:03:51;;;;;;;6.68;3.53;;;12.40;66.70;;;;;;5076266;28;20115;-66
2023/05/31 02:06:17;;;;;;;4.82;3.38;;;12.40;66.70;;;;;;5075275;28;20100;-66
2023/05/31 02:08:42;;;;;;;4.82;3.42;;;12.30;66.60;;;;;;5093704;28;20075;-66
2023/05/31 02:11:08;;;;;;;4.35;2.53;;;12.30;66.50;;;;;;5111023;27;20507;-66
2023/05/31 02:13:35;;;;;;;4.53;3.13;;;12.30;66.50;;;;;;5076206;28;20061;-66
2023/05/31 02:16:01;;;;;;;5.63;3.38;;;12.30;66.40;;;;;;5116103;27;20120;-66
2023/05/31 02:18:27;;;;;;;4.78;2.95;;;12.30;66.40;;;;;;5093159;28;20047;-66
2023/05/31 02:20:53;;;;;;;5.20;2.63;;;12.30;66.40;;;;;;5076365;28;20119;-66
2023/05/31 02:23:20;;;;;;;5.03;3.38;;;12.20;66.30;;;;;;5093276;28;20044;-66
2023/05/31 02:25:46;;;;;;;5.10;2.95;;;12.20;66.20;;;;;;5075703;28;20036;-66
2023/05/31 02:28:13;;;;;;;4.25;2.97;;;12.20;66.30;;;;;;5093141;28;20123;-66
2023/05/31 02:30:40;;;;;;;4.50;3.10;;;12.20;66.20;;;;;;5093047;28;20036;-66
2023/05/31 02:33:07;;;;;;;3.97;2.83;;;12.20;66.30;;;;;;5075838;28;20075;-66
2023/05/31 02:35:33;;;;;;;4.15;2.85;;;12.20;66.30;;;;;;5120851;27;20495;-66
2023/05/31 02:37:59;;;;;;;3.97;2.83;;;12.10;66.20;;;;;;5126301;27;20040;-66
2023/05/31 02:40:24;;;;;;;4.30;2.85;;;12.10;66.30;;;;;;5076030;28;20046;-66
2023/05/31 02:42:50;;;;;;;4.35;3.03;;;12.10;66.30;;;;;;5092730;28;20040;-66
2023/05/31 02:45:16;;;;;;;4.32;2.75;;;12.10;66.20;;;;;;5118349;27;20089;-66
2023/05/31 02:47:42;;;;;;;3.70;2.90;;;12.10;66.30;;;;;;5092619;28;20119;-66
2023/05/31 02:50:09;;;;;;;4.63;3.03;;;12.10;66.40;;;;;;5092915;28;20131;-66
2023/05/31 02:52:36;;;;;;;5.45;3.22;;;12.00;66.50;;;;;;5121475;27;20036;-66
2023/05/31 02:55:02;;;;;;;3.95;2.63;;;12.00;66.50;;;;;;5112734;27;20040;-66
2023/05/31 02:57:28;;;;;;;4.20;2.78;;;12.00;66.50;;;;;;5125651;27;20543;-66
2023/05/31 03:00:12;;;;;;;3.60;2.58;;;12.00;66.60;;;;;;5093827;28;20040;-66
2023/05/31 03:02:39;;;;;;;4.07;3.00;;;12.00;66.60;;;;;;5120528;27;20109;-66
2023/05/31 03:05:06;;;;;;;4.90;3.35;;;12.00;66.60;;;;;;5092327;28;20085;-66
2023/05/31 03:07:38;;;;;;;5.25;3.25;;;12.00;66.70;;;;;;5125869;27;20040;-66
2023/05/31 03:10:04;;;;;;;4.63;2.58;;;12.00;66.70;;;;;;5118346;27;20044;-66
2023/05/31 03:12:31;;;;;;;4.45;3.63;;;11.90;66.60;;;;;;5100956;28;20036;-66
2023/05/31 03:14:57;;;;;;;5.05;2.90;;;11.90;66.70;;;;;;5124264;27;20077;-66
2023/05/31 03:17:23;;;;;;;4.25;2.92;;;11.90;66.70;;;;;;5125238;27;20063;-66
2023/05/31 03:19:48;;;;;;;7.18;3.60;;;11.90;66.80;;;;;;5125004;27;20093;-66
2023/05/31 03:22:14;;;;;;;6.43;3.97;;;11.90;66.80;;;;;;5091772;28;20047;-66
2023/05/31 03:24:40;;;;;;;5.65;3.70;;;11.90;66.90;;;;;;5092137;28;20048;-66
2023/05/31 03:27:06;;;;;;;5.30;3.10;;;11.80;66.90;;;;;;5120067;27;20119;-66
2023/05/31 03:29:36;;;;;;;4.68;3.00;;;11.80;66.90;;;;;;5125077;27;20079;-66
2023/05/31 03:32:02;;;;;;;4.68;3.08;;;11.80;66.90;;;;;;5091496;28;20494;-66
2023/05/31 03:34:28;;;;;;;6.45;3.92;;;11.80;67.00;;;;;;5075087;28;20039;-66
2023/05/31 03:36:54;;;;;;;5.13;3.58;;;11.80;67.00;;;;;;5111231;27;20040;-66
2023/05/31 03:39:20;;;;;;;6.57;3.47;;;11.80;67.00;;;;;;5092061;28;20046;-66
2023/05/31 03:41:46;;;;;;;4.57;2.80;;;11.80;67.10;;;;;;5120841;27;20494;-66
2023/05/31 03:44:11;;;;;;;4.65;3.22;;;11.80;67.10;;;;;;5071958;28;20071;-66
2023/05/31 03:46:37;;;;;;;5.63;3.70;;;11.80;67.10;;;;;;5091156;28;20070;-66
2023/05/31 03:49:05;;;;;;;5.55;3.75;;;11.80;67.20;;;;;;5124246;27;20055;-66
2023/05/31 03:51:31;;;;;;;4.60;3.38;;;11.80;67.20;;;;;;5118637;27;20124;-66
2023/05/31 03:53:57;;;;;;;4.78;3.03;;;11.70;67.30;;;;;;5074459;28;20046;-66
2023/05/31 03:56:23;;;;;;;6.82;3.20;;;11.70;67.30;;;;;;5115506;27;20446;-66
2023/05/31 03:58:49;;;;;;;5.50;3.30;;;11.70;67.40;;;;;;5091556;28;20038;-66
2023/05/31 04:01:14;;;;;;;4.32;2.67;;;11.70;67.50;;;;;;5090872;28;20541;-66
2023/05/31 04:03:40;;;;;;;5.82;3.35;;;11.70;67.60;;;;;;5122180;27;20048;-66
2023/05/31 04:06:06;;;;;;;7.28;4.13;;;11.70;67.60;;;;;;5090677;28;20051;-66
2023/05/31 04:08:32;;;;;;;5.32;3.53;;;11.70;67.60;;;;;;5074763;28;20040;-66
2023/05/31 04:10:57;;;;;;;5.15;3.47;;;11.70;67.70;;;;;;5091152;28;20036;-66
2023/05/31 04:13:23;;;;;;;5.80;3.50;;;11.70;67.80;;;;;;5090226;28;20123;-66
2023/05/31 04:15:49;;;;;;;6.13;3.30;;;11.70;67.90;;;;;;5073811;28;20437;-66
2023/05/31 04:18:14;;;;;;;4.30;3.28;;;11.70;68.10;;;;;;5091404;28;20119;-66
2023/05/31 04:20:40;;;;;;;7.13;3.67;;;11.70;68.10;;;;;;5073080;28;20035;-66
2023/05/31 04:23:06;;;;;;;5.78;3.85;;;11.70;68.30;;;;;;5114034;27;20036;-66
2023/05/31 04:25:31;;;;;;;4.93;3.42;;;11.70;68.30;;;;;;5074139;28;20051;-66
2023/05/31 04:27:57;;;;;;;5.07;3.92;;;11.70;68.50;;;;;;5090914;28;20539;-66
2023/05/31 04:30:26;;;;;;;5.63;3.58;;;11.70;68.70;;;;;;5122514;27;20032;-66
2023/05/31 04:32:56;;;;;;;6.68;4.07;;;11.70;68.70;;;;;;5089861;28;20154;-66
2023/05/31 04:35:22;;;;;;;5.43;3.78;;;11.70;68.90;;;;;;5090643;28;20036;-66
2023/05/31 04:37:52;;;;;;;7.35;4.00;;;11.70;69.10;;;;;;5109829;27;20055;-66
2023/05/31 04:40:20;;;;;;;9.95;4.88;;;11.70;69.30;;;;;;5090625;28;20117;-66
2023/05/31 04:42:46;;;;;;;8.75;5.43;;;11.70;69.50;;;;;;5090573;28;20032;-66
2023/05/31 04:45:12;;;;;;;8.30;5.00;;;11.70;69.90;;;;;;5110828;27;20044;-67
2023/05/31 04:47:37;;;;;;;9.18;4.82;;;11.70;70.20;;;;;;5073489;28;20055;-66
2023/05/31 04:50:03;;;;;;;7.75;4.90;;;11.70;70.40;;;;;;5090513;28;20519;-68
2023/05/31 04:52:31;;;;;;;7.38;4.50;;;11.70;70.80;;;;;;5073975;28;20395;-69
2023/05/31 04:55:01;;;;;;;6.90;4.75;;;11.70;70.90;;;;;;5091133;28;20548;-69
2023/05/31 04:57:28;;;;;;;6.18;4.28;;;11.70;71.00;;;;;;5113706;28;20447;-69
2023/05/31 04:59:56;;;;;;;8.90;5.57;;;11.70;71.30;;;;;;5086023;28;20028;-69
2023/05/31 05:02:22;;;;;;;7.30;5.05;;;11.70;71.90;;;;;;5090793;28;20544;-70
2023/05/31 05:04:48;;;;;;;9.25;6.32;;;11.80;72.50;;;;;;5091570;28;20445;-70
2023/05/31 05:07:15;;;;;;;11.95;6.88;;;11.80;73.30;;;;;;5092827;28;20131;-69
2023/05/31 05:09:40;;;;;;;9.02;5.88;;;11.90;74.40;;;;;;5074579;28;20124;-69
2023/05/31 05:12:07;;;;;;;7.90;5.95;;;12.00;75.40;;;;;;5071255;28;20111;-69
2023/05/31 05:14:33;;;;;;;11.35;6.38;;;12.30;75.90;;;;;;5084908;28;20040;-69
2023/05/31 05:16:59;;;;;;;11.75;6.53;;;12.50;75.90;;;;;;5125528;28;20136;-69
2023/05/31 05:19:24;;;;;;;10.90;5.85;;;12.80;75.70;;;;;;5125706;28;20044;-69
2023/05/31 05:21:50;;;;;;;10.13;6.15;;;13.20;75.60;;;;;;5071844;28;20044;-69
2023/05/31 05:24:16;;;;;;;11.18;5.75;;;13.50;75.10;;;;;;5091024;28;20515;-69
2023/05/31 05:26:42;;;;;;;9.15;5.32;;;13.90;74.20;;;;;;5091487;28;20040;-69
2023/05/31 05:29:07;;;;;;;12.35;5.97;;;14.40;73.50;;;;;;5091455;28;20044;-69
2023/05/31 05:31:33;;;;;;;11.07;6.03;;;14.80;72.70;;;;;;5091866;28;20119;-69
2023/05/31 05:33:59;;;;;;;9.52;5.85;;;15.30;71.80;;;;;;5095139;28;20036;-69
2023/05/31 05:36:25;;;;;;;8.13;5.90;;;15.70;70.80;;;;;;5129416;27;20082;-70
2023/05/31 05:38:51;;;;;;;8.43;5.90;;;16.20;69.40;;;;;;5128887;27;20052;-70
2023/05/31 05:41:17;;;;;;;9.70;5.60;;;16.50;68.20;;;;;;5129293;27;20048;-70
2023/05/31 05:43:43;;;;;;;10.38;5.57;;;16.90;66.90;;;;;;5078165;28;20040;-70
2023/05/31 05:46:08;;;;;;;9.95;5.85;;;17.20;66.00;;;;;;5095341;28;20161;-70
2023/05/31 05:48:34;;;;;;;9.55;5.05;;;17.60;65.50;;;;;;5094821;28;20060;-70
2023/05/31 05:51:00;;;;;;;7.93;4.78;;;17.90;64.30;;;;;;5094649;28;20036;-70
2023/05/31 05:53:26;;;;;;;9.25;5.45;;;18.30;63.30;;;;;;5129120;27;20553;-69
2023/05/31 05:55:53;;;;;;;9.57;5.47;;;18.60;62.40;;;;;;5077442;28;20064;-69
2023/05/31 05:58:20;;;;;;;8.95;6.13;;;19.00;61.40;;;;;;5094841;28;20111;-69
2023/05/31 06:00:46;;;;;;;9.60;5.68;;;19.40;60.20;;;;;;5113032;27;20055;-69
2023/05/31 06:03:12;;;;;;;9.70;5.10;;;19.70;59.00;;;;;;5120559;27;20502;-69
2023/05/31 06:05:39;;;;;;;10.02;5.28;;;20.00;58.30;;;;;;5094514;28;20075;-69
2023/05/31 06:08:06;;;;;;;9.75;5.18;;;20.20;57.80;;;;;;5128798;27;20437;-69
2023/05/31 06:10:32;;;;;;;10.98;5.25;;;20.30;57.60;;;;;;5128620;27;20075;-69
2023/05/31 06:12:57;;;;;;;9.13;5.13;;;20.50;57.30;;;;;;5110863;28;20451;-69
2023/05/31 06:15:23;;;;;;;12.93;5.20;;;20.60;56.30;;;;;;5128937;27;20036;-69
2023/05/31 06:17:49;;;;;;;8.50;4.82;;;20.80;56.00;;;;;;5128685;27;20602;-70
2023/05/31 06:20:16;;;;;;;7.43;4.45;;;20.90;55.50;;;;;;5128571;27;20073;-69
2023/05/31 06:22:42;;;;;;;9.90;4.85;;;20.90;54.40;;;;;;5128485;27;20047;-69
2023/05/31 06:25:08;;;;;;;11.73;5.22;;;20.90;54.90;;;;;;5128261;27;20044;-69
2023/05/31 06:27:34;;;;;;;8.10;4.57;;;21.00;54.60;;;;;;5128209;27;20058;-68
2023/05/31 06:30:00;;;;;;;7.45;4.43;;;21.10;54.50;;;;;;5126782;27;20472;-68
2023/05/31 06:32:30;;;;;;;8.40;3.92;;;21.20;54.50;;;;;;5128538;27;20032;-69
2023/05/31 06:34:56;;;;;;;7.07;4.65;;;21.40;53.70;;;;;;5128352;27;20369;-69
2023/05/31 06:37:22;;;;;;;7.68;4.47;;;21.40;53.30;;;;;;5077586;28;20083;-69
2023/05/31 06:39:51;;;;;;;8.23;4.30;;;21.50;53.10;;;;;;5128326;27;20101;-69
2023/05/31 06:42:17;;;;;;;7.97;4.40;;;21.60;52.70;;;;;;5128228;27;20044;-68
2023/05/31 06:44:43;;;;;;;7.78;4.10;;;21.60;53.00;;;;;;5127361;27;20066;-69
2023/05/31 06:47:09;;;;;;;8.70;3.72;;;21.70;52.70;;;;;;5076730;28;20094;-69
2023/05/31 06:49:35;;;;;;;8.77;4.60;;;21.90;52.20;;;;;;5127968;27;20465;-69
2023/05/31 06:52:01;;;;;;;8.00;4.18;;;22.00;52.10;;;;;;5128014;27;20044;-69
2023/05/31 06:54:28;;;;;;;6.07;4.07;;;22.10;51.40;;;;;;5128018;27;20166;-69
2023/05/31 06:56:54;;;;;;;6.65;3.65;;;22.20;51.90;;;;;;5127680;27;20043;-69
2023/05/31 06:59:20;;;;;;;9.32;3.83;;;22.30;51.40;;;;;;5127837;27;20043;-69
2023/05/31 07:01:46;;;;;;;6.57;4.10;;;22.40;51.50;;;;;;5122314;27;20059;-69
2023/05/31 07:04:12;;;;;;;5.70;3.70;;;22.50;51.40;;;;;;5073099;28;20472;-68
2023/05/31 07:06:38;;;;;;;6.95;3.33;;;22.60;50.70;;;;;;5073060;28;20059;-69
2023/05/31 07:09:06;;;;;;;7.25;4.57;;;22.80;50.70;;;;;;5073227;28;20087;-69
2023/05/31 07:11:32;;;;;;;6.82;3.88;;;22.90;50.10;;;;;;5073085;28;20127;-69
2023/05/31 07:14:01;;;;;;;9.23;4.00;;;23.00;50.30;;;;;;5073280;28;20131;-69
2023/05/31 07:16:28;;;;;;;7.20;3.97;;;23.10;50.10;;;;;;5073038;28;20055;-69
2023/05/31 07:18:54;;;;;;;6.40;3.63;;;23.20;49.60;;;;;;5081592;28;20066;-69
2023/05/31 07:21:20;;;;;;;11.07;4.65;;;23.20;49.40;;;;;;5126931;27;20054;-69
2023/05/31 07:23:45;;;;;;;7.38;3.50;;;23.20;49.30;;;;;;5127377;27;20119;-66
2023/05/31 07:26:11;;;;;;;9.20;4.28;;;23.20;49.30;;;;;;5127104;27;20044;-65
2023/05/31 07:28:37;;;;;;;8.20;3.75;;;23.10;49.60;;;;;;5127486;27;20119;-65
2023/05/31 07:31:03;;;;;;;7.18;3.97;;;23.20;48.90;;;;;;5127454;27;20526;-65
2023/05/31 07:33:30;;;;;;;6.40;4.00;;;23.20;49.40;;;;;;5118031;27;20072;-66
2023/05/31 07:35:59;;;;;;;6.68;3.63;;;23.20;48.90;;;;;;5072897;28;20040;-65
2023/05/31 07:38:25;;;;;;;6.75;3.47;;;23.30;49.30;;;;;;5073804;28;20029;-67
2023/05/31 07:40:51;;;;;;;5.82;3.50;;;23.20;48.50;;;;;;5089251;28;20127;-67
2023/05/31 07:43:20;;;;;;;6.80;4.47;;;23.10;48.10;;;;;;5072524;28;20036;-67
2023/05/31 07:45:47;;;;;;;8.07;3.78;;;23.10;48.30;;;;;;5072648;28;20040;-67
2023/05/31 07:48:13;;;;;;;7.70;4.43;;;23.10;48.70;;;;;;5085565;28;20137;-67
2023/05/31 07:50:39;;;;;;;5.57;3.53;;;23.10;48.60;;;;;;5126708;27;20040;-67
2023/05/31 07:53:05;;;;;;;6.45;4.55;;;23.10;49.00;;;;;;5126547;27;20071;-67
2023/05/31 07:55:30;;;;;;;7.45;4.28;;;23.20;48.40;;;;;;5091757;28;20130;-68
2023/05/31 07:57:56;;;;;;;7.15;3.75;;;23.20;48.20;;;;;;5109375;28;20552;-67
2023/05/31 08:00:23;;;;;;;11.18;4.35;;;23.30;47.80;;;;;;5092753;28;20047;-67
2023/05/31 08:02:49;;;;;;;8.73;4.25;;;23.30;47.40;;;;;;5126748;27;20067;-67
2023/05/31 08:05:15;;;;;;;6.50;4.18;;;23.40;47.30;;;;;;5092299;28;20647;-67
2023/05/31 08:07:40;;;;;;;7.25;4.30;;;23.30;46.80;;;;;;5092017;28;20385;-67
2023/05/31 08:10:06;;;;;;;8.05;4.07;;;23.20;47.10;;;;;;5092165;28;20157;-67
2023/05/31 08:12:32;;;;;;;9.43;4.60;;;23.10;47.70;;;;;;5091994;28;20130;-67
2023/05/31 08:14:58;;;;;;;7.35;4.38;;;23.00;48.00;;;;;;5093026;28;20119;-67
2023/05/31 08:17:24;;;;;;;5.93;3.28;;;23.00;48.10;;;;;;5092047;28;20035;-67
2023/05/31 08:19:50;;;;;;;5.72;3.38;;;22.90;47.90;;;;;;5091557;28;20035;-66
2023/05/31 08:22:15;;;;;;;8.07;3.78;;;22.90;48.40;;;;;;5091801;28;20086;-67
2023/05/31 08:24:41;;;;;;;8.35;4.32;;;23.00;48.20;;;;;;5091852;28;20047;-67
2023/05/31 08:27:07;;;;;;;8.10;4.60;;;23.10;47.40;;;;;;5091954;28;20075;-67
2023/05/31 08:29:34;;;;;;;7.13;3.60;;;23.20;47.60;;;;;;5075322;28;20518;-67
2023/05/31 08:32:00;;;;;;;7.28;3.60;;;23.20;47.60;;;;;;5093087;28;20107;-67
2023/05/31 08:34:25;;;;;;;5.47;3.35;;;23.30;47.10;;;;;;5074942;28;20155;-67
2023/05/31 08:36:51;;;;;;;7.32;3.20;;;23.40;47.10;;;;;;5125901;27;20554;-67
2023/05/31 08:39:17;;;;;;;7.88;3.88;;;23.50;46.80;;;;;;5126079;27;20044;-67
2023/05/31 08:42:05;;;;;;;7.88;3.45;;;23.70;46.10;;;;;;5126178;27;20047;-67
2023/05/31 08:44:31;;;;;;;10.23;4.10;;;23.90;45.70;;;;;;5092896;28;20097;-65
2023/05/31 08:47:01;;;;;;;9.30;3.58;;;24.00;44.70;;;;;;5120417;27;20036;-65
2023/05/31 08:49:28;;;;;;;7.97;3.58;;;24.20;44.70;;;;;;5070990;28;20057;-65
2023/05/31 08:51:55;;;;;;;7.20;3.72;;;24.30;44.30;;;;;;5071285;28;20037;-65
2023/05/31 08:54:23;;;;;;;8.10;4.00;;;24.30;43.90;;;;;;5071280;28;20111;-66
2023/05/31 08:56:50;;;;;;;7.63;3.63;;;24.40;44.30;;;;;;5071317;28;20127;-66
2023/05/31 08:59:18;;;;;;;7.78;3.67;;;24.60;43.90;;;;;;5077778;28;20062;-66
2023/05/31 09:01:44;;;;;;;7.13;3.65;;;24.60;44.30;;;;;;5090897;28;20499;-66
2023/05/31 09:04:10;;;;;;;4.97;3.35;;;24.80;44.20;;;;;;5091115;28;20055;-65
2023/05/31 09:06:36;;;;;;;6.18;3.05;;;24.90;43.30;;;;;;5089216;28;20039;-66
2023/05/31 09:09:02;;;;;;;8.25;3.45;;;25.00;43.30;;;;;;5095122;28;20537;-66
2023/05/31 09:11:28;;;;;;;7.68;3.20;;;25.10;43.00;;;;;;5095394;28;20063;-66
2023/05/31 09:13:54;;;;;;;8.13;2.85;;;25.30;43.20;;;;;;5095276;28;20067;-66
2023/05/31 09:16:22;;;;;;;6.40;2.88;;;25.40;43.60;;;;;;5078650;28;20036;-65
2023/05/31 09:18:48;;;;;;;6.13;3.38;;;25.50;43.60;;;;;;5094904;28;20052;-65
2023/05/31 09:21:14;;;;;;;8.43;3.60;;;25.70;43.00;;;;;;5095278;28;20036;-65
2023/05/31 09:23:53;;;;;;;5.78;3.08;;;25.80;42.00;;;;;;5075633;28;20368;-66
2023/05/31 09:26:19;;;;;;;7.75;3.10;;;25.90;42.00;;;;;;5096077;28;20043;-66
2023/05/31 09:28:55;;;;;;;6.05;2.88;;;25.90;41.40;;;;;;5095051;28;20086;-66
2023/05/31 09:31:21;;;;;;;7.75;3.10;;;25.90;40.90;;;;;;5092278;28;20028;-65
2023/05/31 09:33:48;;;;;;;6.00;2.90;;;25.80;41.00;;;;;;5094595;28;20114;-65
2023/05/31 09:36:30;;;;;;;4.65;2.50;;;25.80;41.70;;;;;;5128383;27;20417;-66
2023/05/31 09:39:08;;;;;;;5.38;2.80;;;25.90;41.50;;;;;;5094029;28;20047;-65
2023/05/31 09:41:35;;;;;;;7.18;3.35;;;26.00;40.90;;;;;;5095899;28;20036;-65
2023/05/31 09:44:01;;;;;;;4.97;2.78;;;26.00;41.30;;;;;;5092220;28;20039;-65
2023/05/31 09:46:27;;;;;;;6.72;3.10;;;26.10;40.90;;;;;;5095852;28;20048;-65
2023/05/31 09:49:06;;;;;;;8.40;3.55;;;26.20;41.10;;;;;;5094550;28;20117;-65
2023/05/31 09:51:33;;;;;;;6.43;3.00;;;26.20;40.70;;;;;;5093364;28;20403;-65
2023/05/31 09:54:11;;;;;;;6.90;3.08;;;26.20;40.20;;;;;;5077540;28;20494;-65
2023/05/31 09:56:38;;;;;;;6.80;3.30;;;26.20;41.20;;;;;;5094512;28;20119;-65
2023/05/31 09:59:05;;;;;;;6.07;3.42;;;26.30;40.80;;;;;;5077399;28;20039;-65
2023/05/31 10:01:36;;;;;;;6.97;3.92;;;26.30;39.80;;;;;;5094281;28;20043;-65
2023/05/31 10:04:03;;;;;;;8.27;3.88;;;26.20;39.80;;;;;;5091907;28;20063;-65
2023/05/31 10:06:34;;;;;;;6.15;3.70;;;26.00;40.10;;;;;;5094272;28;20078;-65
2023/05/31 10:09:02;;;;;;;9.80;3.45;;;25.90;40.50;;;;;;5093929;28;20040;-65
2023/05/31 10:11:34;;;;;;;9.30;4.57;;;25.80;40.30;;;;;;5094318;28;20036;-65
2023/05/31 10:14:12;;;;;;;8.32;3.42;;;25.80;40.90;;;;;;5094703;28;20036;-67
2023/05/31 10:17:02;;;;;;;8.35;3.20;;;25.80;41.60;;;;;;5094396;28;20050;-65
2023/05/31 10:19:41;;;;;;;6.53;4.32;;;25.90;42.60;;;;;;5094542;28;20044;-65
2023/05/31 10:22:07;;;;;;;6.13;3.60;;;26.00;41.30;;;;;;5093931;28;20032;-65
2023/05/31 10:24:44;;;;;;;8.30;3.97;;;26.10;41.90;;;;;;5094590;28;20106;-66
2023/05/31 10:27:34;;;;;;;6.07;3.45;;;26.20;41.30;;;;;;5094176;28;20127;-65
2023/05/31 10:30:04;;;;;;;7.07;3.95;;;26.20;42.00;;;;;;5094148;28;20048;-66
2023/05/31 10:32:33;;;;;;;8.25;3.78;;;26.20;42.20;;;;;;5094223;28;20118;-65
2023/05/31 10:35:01;;;;;;;8.13;3.75;;;26.30;41.40;;;;;;5077180;28;20134;-66
2023/05/31 10:37:28;;;;;;;7.45;4.38;;;26.30;41.60;;;;;;5094014;28;20036;-68
2023/05/31 10:40:36;;;;;;;6.32;3.78;;;26.30;41.70;;;;;;5095109;28;20430;-65
2023/05/31 10:43:30;;;;;;;6.75;4.07;;;26.40;42.00;;;;;;5093942;28;20379;-66
2023/05/31 10:46:04;;;;;;;8.82;4.88;;;26.40;42.20;;;;;;5093857;28;20118;-65
2023/05/31 10:48:56;;;;;;;8.07;4.20;;;26.40;41.30;;;;;;5127611;27;20062;-66
2023/05/31 10:51:44;;;;;;;7.47;3.67;;;26.30;41.60;;;;;;5095087;28;20044;-66
2023/05/31 10:54:20;;;;;;;7.28;4.45;;;26.30;42.70;;;;;;5127824;27;20120;-66
2023/05/31 10:56:55;;;;;;;8.13;5.03;;;26.40;42.20;;;;;;5125973;27;20502;-65
2023/05/31 10:59:22;;;;;;;9.10;4.72;;;26.50;42.00;;;;;;5127965;27;20062;-65
2023/05/31 11:01:48;;;;;;;7.93;4.93;;;26.60;41.90;;;;;;5094796;28;20040;-66
2023/05/31 11:04:21;;;;;;;10.10;4.90;;;26.70;41.40;;;;;;5093460;28;20115;-65
2023/05/31 11:06:47;;;;;;;9.23;4.73;;;26.80;41.40;;;;;;5094761;28;20130;-65
2023/05/31 11:09:17;;;;;;;6.90;4.22;;;26.80;41.40;;;;;;5076189;28;20133;-65
2023/05/31 11:11:48;;;;;;;8.00;5.10;;;27.00;41.70;;;;;;5094783;28;20158;-65
2023/05/31 11:14:25;;;;;;;8.07;4.50;;;27.00;40.80;;;;;;5093522;28;20441;-66
2023/05/31 11:16:53;;;;;;;10.73;5.25;;;27.00;41.20;;;;;;5093645;28;20455;-66
2023/05/31 11:19:24;;;;;;;7.68;4.30;;;27.10;41.50;;;;;;5093506;28;20048;-65
2023/05/31 11:21:55;;;;;;;7.35;3.67;;;27.10;42.50;;;;;;5093457;28;20059;-66
2023/05/31 11:24:33;;;;;;;6.15;3.63;;;27.10;42.90;;;;;;5093343;28;20044;-65
2023/05/31 11:27:00;;;;;;;6.45;3.45;;;27.10;43.30;;;;;;5093963;28;20083;-66
2023/05/31 11:29:44;;;;;;;8.52;4.13;;;27.10;43.60;;;;;;5094057;28;20044;-66
2023/05/31 11:32:13;;;;;;;6.05;3.20;;;27.10;43.10;;;;;;5127434;27;20364;-66
2023/05/31 11:35:01;;;;;;;15.85;4.28;;;27.00;43.60;;;;;;5126935;27;20510;-65
2023/05/31 11:37:31;;;;;;;9.27;4.38;;;27.00;43.60;;;;;;5094123;28;20048;-66
2023/05/31 11:40:01;;;;;;;8.65;3.85;;;27.00;43.40;;;;;;5094204;28;20036;-66
2023/05/31 11:42:30;;;;;;;8.77;4.00;;;27.00;43.50;;;;;;5093795;28;20040;-66
2023/05/31 11:44:57;;;;;;;10.07;4.32;;;27.00;44.00;;;;;;5094024;28;20550;-65
2023/05/31 11:47:26;;;;;;;9.15;4.15;;;27.00;43.70;;;;;;5126753;27;20039;-65
2023/05/31 11:49:52;;;;;;;7.20;3.78;;;26.90;43.50;;;;;;5093766;28;20060;-65
2023/05/31 11:52:20;;;;;;;7.38;3.58;;;26.80;43.90;;;;;;5126758;27;20048;-66
2023/05/31 11:54:50;;;;;;;9.45;3.80;;;26.80;44.20;;;;;;5126806;27;20063;-65
2023/05/31 11:57:17;;;;;;;8.52;3.10;;;26.80;44.00;;;;;;5076229;28;20126;-65
2023/05/31 11:59:43;;;;;;;8.32;4.13;;;26.80;44.30;;;;;;5092360;28;20076;-65
2023/05/31 12:02:10;;;;;;;9.15;4.53;;;26.80;44.60;;;;;;5092372;28;20135;-65
2023/05/31 12:04:41;;;;;;;12.50;5.22;;;26.80;44.10;;;;;;5092254;28;20051;-65
2023/05/31 12:07:19;;;;;;;8.18;3.70;;;26.80;43.90;;;;;;5092454;28;20043;-65
2023/05/31 12:09:46;;;;;;;8.88;4.07;;;26.80;44.50;;;;;;5093530;28;20040;-65
2023/05/31 12:12:12;;;;;;;7.75;3.63;;;26.70;44.10;;;;;;5093669;28;20047;-66
2023/05/31 12:14:38;;;;;;;10.88;4.45;;;26.70;44.40;;;;;;5092290;28;20040;-65
2023/05/31 12:17:05;;;;;;;12.10;4.50;;;26.80;45.00;;;;;;5126640;27;20549;-65
2023/05/31 12:19:32;;;;;;;6.53;4.50;;;26.70;44.10;;;;;;5126171;27;20054;-65
2023/05/31 12:21:58;;;;;;;8.98;4.20;;;26.70;43.70;;;;;;5075450;28;20062;-65
2023/05/31 12:24:24;;;;;;;10.23;5.10;;;26.70;43.50;;;;;;5075049;28;20040;-65
2023/05/31 12:26:51;;;;;;;8.05;4.53;;;26.70;43.80;;;;;;5126003;27;20120;-65
2023/05/31 12:29:18;;;;;;;9.18;5.10;;;26.70;44.20;;;;;;5126192;27;20096;-65
2023/05/31 12:31:45;;;;;;;12.90;6.10;;;26.60;44.20;;;;;;5092966;28;20032;-65
2023/05/31 12:34:17;;;;;;;6.75;4.18;;;26.60;43.20;;;;;;5091794;28;20048;-65
2023/05/31 12:36:50;;;;;;;6.53;3.92;;;26.60;43.50;;;;;;5074935;28;20052;-65
2023/05/31 12:39:22;;;;;;;7.82;4.82;;;26.60;44.10;;;;;;5091711;28;20044;-65
2023/05/31 12:41:49;;;;;;;8.15;4.25;;;26.60;43.50;;;;;;5091048;28;20046;-65
2023/05/31 12:44:20;;;;;;;7.13;5.20;;;26.60;43.80;;;;;;5091993;28;20101;-65
2023/05/31 12:46:50;;;;;;;6.60;4.68;;;26.70;43.60;;;;;;5091400;28;20066;-65
2023/05/31 12:49:24;;;;;;;9.73;5.45;;;26.70;43.00;;;;;;5091462;28;20052;-65